Time;durP1;ratioP1;P1;durP2;ratioP2;P2;SDS_P1;SDS_P2;PMS_P1;PMS_P2;Temp;Humidity;BMP_temperature;BMP_pressure;BME280_temperature;BME280_humidity;BME280_pressure;Samples;Min_cycle;Max_cycle;Signal;HPM_P1;HPM_P2
2021/08/05 00:02:13;;;;;;;7.05;6.28;;;;;;;18.12;80.73;99999.09;5156580;27;20051;-83
2021/08/05 00:04:41;;;;;;;8.75;7.22;;;;;;;18.09;80.73;99992.19;5150045;27;20047;-82
2021/08/05 00:07:08;;;;;;;9.38;7.03;;;;;;;18.09;80.87;99986.84;5164550;27;20050;-82
2021/08/05 00:09:35;;;;;;;7.75;6.95;;;;;;;18.06;81.06;99989.75;5173050;27;20048;-83
2021/08/05 00:12:03;;;;;;;8.93;6.70;;;;;;;18.05;81.09;99989.88;5158334;27;20045;-82
2021/08/05 00:14:30;;;;;;;8.02;7.22;;;;;;;18.01;81.46;99988.44;5152589;27;20039;-82
2021/08/05 00:16:56;;;;;;;7.85;6.40;;;;;;;17.98;81.85;99989.53;5154416;27;20059;-82
2021/08/05 00:19:24;;;;;;;8.23;6.95;;;;;;;17.94;82.29;99987.28;5159247;27;20043;-82
2021/08/05 00:21:51;;;;;;;7.45;6.75;;;;;;;17.86;82.67;99983.41;5143761;27;20058;-83
2021/08/05 00:24:17;;;;;;;11.63;6.57;;;;;;;17.77;82.71;99978.81;5135921;27;20050;-82
2021/08/05 00:26:44;;;;;;;7.70;6.80;;;;;;;17.77;83.00;99986.00;5131884;27;20064;-82
2021/08/05 00:29:11;;;;;;;9.73;6.40;;;;;;;17.75;83.12;99980.78;5116367;27;20545;-83
2021/08/05 00:31:38;;;;;;;6.85;6.22;;;;;;;17.76;83.36;99979.78;5135544;27;20046;-82
2021/08/05 00:34:05;;;;;;;7.13;6.30;;;;;;;17.78;83.41;99977.00;5136141;27;20039;-82
2021/08/05 00:36:40;;;;;;;7.05;6.35;;;;;;;17.73;83.38;99974.69;5131880;27;20070;-82
2021/08/05 00:39:07;;;;;;;10.32;6.68;;;;;;;17.73;83.50;99974.69;5137140;27;20047;-83
2021/08/05 00:41:34;;;;;;;7.88;6.38;;;;;;;17.72;83.13;99972.97;5142155;27;20490;-82
2021/08/05 00:44:02;;;;;;;7.78;5.97;;;;;;;17.69;83.05;99967.03;5146073;27;20099;-81
2021/08/05 00:46:29;;;;;;;7.85;5.95;;;;;;;17.68;83.14;99968.00;5142245;27;20967;-83
2021/08/05 00:48:57;;;;;;;10.50;6.38;;;;;;;17.65;82.89;99960.22;5144321;27;20078;-81
2021/08/05 00:51:24;;;;;;;7.10;6.22;;;;;;;17.63;83.13;99964.84;5147198;27;20045;-81
2021/08/05 00:53:50;;;;;;;8.27;6.32;;;;;;;17.60;83.19;99957.06;5150564;27;20066;-83
2021/08/05 00:56:17;;;;;;;6.88;6.18;;;;;;;17.58;83.37;99954.50;5152647;27;20107;-80
2021/08/05 00:58:44;;;;;;;7.00;6.28;;;;;;;17.56;83.97;99955.59;5139079;27;20047;-81
2021/08/05 01:01:16;;;;;;;10.68;6.75;;;;;;;17.56;84.48;99952.94;5130901;27;20043;-82
2021/08/05 01:03:46;;;;;;;8.05;6.80;;;;;;;17.56;84.05;99955.59;5127419;27;20146;-81
2021/08/05 01:06:40;;;;;;;8.50;7.25;;;;;;;17.55;84.53;99957.44;5124077;27;20046;-82
2021/08/05 01:09:14;;;;;;;9.55;6.72;;;;;;;17.53;84.83;99951.34;5127044;27;20058;-81
2021/08/05 01:11:45;;;;;;;8.20;6.70;;;;;;;17.54;84.82;99950.38;5138345;27;20046;-82
2021/08/05 01:14:16;;;;;;;7.43;6.00;;;;;;;17.52;84.67;99939.78;5125069;27;20130;-82
2021/08/05 01:16:47;;;;;;;7.57;6.45;;;;;;;17.50;84.14;99943.56;5128316;27;20710;-83
2021/08/05 01:19:42;;;;;;;8.45;6.78;;;;;;;17.53;83.93;99948.66;5129414;27;20104;-82
2021/08/05 01:22:16;;;;;;;9.05;6.63;;;;;;;17.50;83.73;99946.25;5138671;27;20053;-82
2021/08/05 01:24:52;;;;;;;7.32;6.45;;;;;;;17.51;83.96;99947.94;5151926;27;20065;-81
2021/08/05 01:27:20;;;;;;;7.35;6.65;;;;;;;17.48;83.88;99950.88;5154308;27;20051;-82
2021/08/05 01:29:48;;;;;;;7.70;6.90;;;;;;;17.47;83.80;99943.84;5150285;27;20050;-82
2021/08/05 01:32:16;;;;;;;8.60;6.40;;;;;;;17.45;83.97;99941.28;5151143;27;20049;-82
2021/08/05 01:34:42;;;;;;;8.02;6.45;;;;;;;17.47;83.96;99939.31;5149651;27;20108;-82
2021/08/05 01:37:10;;;;;;;10.43;7.18;;;;;;;17.44;83.93;99936.06;5155370;27;20054;-82
2021/08/05 01:39:39;;;;;;;9.27;7.53;;;;;;;17.39;84.54;99928.41;5148048;27;20039;-82
2021/08/05 01:42:07;;;;;;;9.45;7.18;;;;;;;17.40;83.98;99939.97;5151570;27;20398;-81
2021/08/05 01:44:35;;;;;;;9.63;8.43;;;;;;;17.39;83.44;99932.91;5145018;27;20047;-83
2021/08/05 01:47:03;;;;;;;7.88;7.07;;;;;;;17.39;83.60;99940.94;5153234;27;20039;-82
2021/08/05 01:49:30;;;;;;;9.63;7.78;;;;;;;17.39;83.67;99938.25;5151583;27;20038;-82
2021/08/05 01:51:57;;;;;;;8.73;7.75;;;;;;;17.37;83.64;99930.34;5157481;27;20047;-82
2021/08/05 01:54:24;;;;;;;11.23;7.80;;;;;;;17.38;83.73;99924.03;5152240;27;20047;-82
2021/08/05 01:56:51;;;;;;;9.98;8.32;;;;;;;17.38;83.70;99926.69;5157492;27;20077;-82
2021/08/05 01:59:18;;;;;;;10.32;8.45;;;;;;;17.35;83.59;99915.41;5155452;27;20704;-82
2021/08/05 02:01:44;;;;;;;11.88;8.02;;;;;;;17.35;83.40;99921.59;5163459;27;20142;-83
2021/08/05 02:04:37;;;;;;;9.45;8.45;;;;;;;17.40;83.52;99926.59;5147794;27;20082;-83
2021/08/05 02:07:13;;;;;;;11.60;8.20;;;;;;;17.37;83.39;99919.66;5161581;27;20134;-83
2021/08/05 02:09:47;;;;;;;10.68;9.20;;;;;;;17.35;83.71;99918.91;5159432;27;20081;-82
2021/08/05 02:12:14;;;;;;;10.88;8.75;;;;;;;17.26;83.60;99902.78;5153497;27;20046;-82
2021/08/05 02:14:41;;;;;;;10.60;8.57;;;;;;;17.34;83.86;99927.91;5145377;27;20046;-82
2021/08/05 02:17:08;;;;;;;10.23;8.18;;;;;;;17.31;84.18;99920.19;5142630;27;20051;-82
2021/08/05 02:19:35;;;;;;;9.60;7.90;;;;;;;17.32;83.85;99915.63;5146230;27;20057;-82
2021/08/05 02:22:04;;;;;;;10.40;8.43;;;;;;;17.35;84.28;99924.28;5138466;27;20051;-81
2021/08/05 02:24:33;;;;;;;10.63;8.57;;;;;;;17.35;84.33;99921.59;5124038;27;20059;-83
2021/08/05 02:27:01;;;;;;;10.93;8.18;;;;;;;17.33;83.97;99918.19;5138751;27;20814;-83
2021/08/05 02:29:28;;;;;;;12.75;9.00;;;;;;;17.33;83.65;99920.88;5145075;27;20046;-83
2021/08/05 02:31:56;;;;;;;10.98;8.48;;;;;;;17.32;83.97;99921.00;5134995;27;20055;-82
2021/08/05 02:34:23;;;;;;;11.57;8.20;;;;;;;17.30;83.61;99906.91;5135969;27;20051;-81
2021/08/05 02:36:52;;;;;;;11.95;9.07;;;;;;;17.29;83.78;99905.22;5138151;27;20110;-83
2021/08/05 02:39:18;;;;;;;10.23;8.43;;;;;;;17.28;83.90;99914.22;5142479;27;20126;-83
2021/08/05 02:41:48;;;;;;;10.35;7.93;;;;;;;17.25;83.87;99911.78;5145777;27;20146;-83
2021/08/05 02:44:16;;;;;;;11.47;8.77;;;;;;;17.22;84.23;99909.34;5143724;28;20119;-82
2021/08/05 02:50:32;;;;;;;9.10;7.53;;;;;;;17.13;84.67;99911.81;5126329;27;20665;-81
2021/08/05 02:53:00;;;;;;;10.57;8.20;;;;;;;17.11;84.92;99912.91;5124483;27;20947;-81
2021/08/05 02:55:27;;;;;;;11.85;8.30;;;;;;;17.05;85.15;99903.56;5127432;27;20056;-80
2021/08/05 02:57:55;;;;;;;11.07;7.80;;;;;;;16.99;85.74;99909.44;5129165;27;20138;-82
2021/08/05 03:00:22;;;;;;;10.63;7.72;;;;;;;16.85;86.20;99901.63;5121091;27;20062;-82
2021/08/05 03:02:49;;;;;;;9.50;7.70;;;;;;;16.78;87.06;99906.66;5106868;28;20051;-83
2021/08/05 03:05:17;;;;;;;8.30;7.28;;;;;;;16.72;87.77;99900.94;5126148;27;20052;-81
2021/08/05 03:07:44;;;;;;;7.72;6.93;;;;;;;16.67;88.10;99897.81;5129490;28;20410;-80
2021/08/05 03:10:15;;;;;;;10.00;7.47;;;;;;;16.65;88.62;99899.75;5125870;27;20439;-82
2021/08/05 03:12:42;;;;;;;7.18;6.43;;;;;;;16.57;88.81;99900.31;5124528;28;20065;-82
2021/08/05 03:15:10;;;;;;;8.30;7.40;;;;;;;16.54;89.15;99889.00;5124271;27;20046;-81
2021/08/05 03:17:37;;;;;;;9.90;8.05;;;;;;;16.52;89.46;99896.31;5126323;28;20052;-81
2021/08/05 03:20:05;;;;;;;9.15;7.60;;;;;;;16.50;90.07;99891.09;5134628;28;20512;-82
2021/08/05 03:22:32;;;;;;;9.38;8.07;;;;;;;16.43;89.97;99893.38;5142931;27;20054;-81
2021/08/05 03:24:58;;;;;;;9.40;7.88;;;;;;;16.41;90.20;99897.13;5159426;27;20064;-82
2021/08/05 03:27:25;;;;;;;11.02;7.88;;;;;;;16.37;90.20;99895.72;5153394;27;20035;-83
2021/08/05 03:29:52;;;;;;;10.68;8.15;;;;;;;16.30;90.47;99892.66;5162076;27;20065;-83
2021/08/05 03:32:18;;;;;;;9.38;8.27;;;;;;;16.28;90.86;99886.56;5156782;27;20042;-82
2021/08/05 03:34:45;;;;;;;11.75;9.00;;;;;;;16.29;91.30;99887.44;5154641;27;20529;-81
2021/08/05 03:37:12;;;;;;;11.93;9.30;;;;;;;16.28;91.07;99885.72;5154837;27;20098;-83
2021/08/05 03:39:38;;;;;;;11.35;9.63;;;;;;;16.26;91.47;99891.19;5160414;27;20051;-82
2021/08/05 03:42:05;;;;;;;11.73;10.05;;;;;;;16.22;91.34;99886.19;5161056;27;20111;-83
2021/08/05 03:44:32;;;;;;;11.43;9.70;;;;;;;16.21;91.52;99885.38;5166151;27;20031;-81
2021/08/05 03:46:58;;;;;;;13.60;10.70;;;;;;;16.21;91.70;99892.53;5155824;27;20512;-82
2021/08/05 03:49:25;;;;;;;13.70;10.60;;;;;;;16.20;91.76;99893.50;5155188;27;20051;-82
2021/08/05 03:51:51;;;;;;;12.75;10.15;;;;;;;16.17;91.98;99889.25;5154411;27;20126;-82
2021/08/05 03:54:18;;;;;;;13.05;9.45;;;;;;;16.16;91.70;99892.88;5158346;27;20058;-82
2021/08/05 03:56:45;;;;;;;13.23;8.95;;;;;;;16.11;91.80;99879.88;5161430;27;20292;-81
2021/08/05 03:59:11;;;;;;;12.05;9.63;;;;;;;16.14;91.97;99889.47;5151476;27;20042;-82
2021/08/05 04:01:38;;;;;;;11.10;8.90;;;;;;;16.12;92.24;99888.75;5155941;27;20043;-82
2021/08/05 04:04:05;;;;;;;11.32;9.98;;;;;;;16.09;92.25;99884.50;5154875;27;20150;-82
2021/08/05 04:06:31;;;;;;;14.82;10.27;;;;;;;16.08;92.45;99890.78;5147636;27;20074;-83
2021/08/05 04:08:58;;;;;;;10.63;9.30;;;;;;;16.09;92.21;99880.97;5154711;27;20057;-82
2021/08/05 04:11:25;;;;;;;13.20;8.57;;;;;;;16.02;91.79;99890.44;5157246;27;20045;-82
2021/08/05 04:13:53;;;;;;;10.80;9.02;;;;;;;15.91;92.11;99887.72;5152147;27;20058;-83
2021/08/05 04:16:19;;;;;;;8.75;7.85;;;;;;;15.78;92.79;99891.34;5159449;27;20041;-84
2021/08/05 04:18:46;;;;;;;9.55;7.93;;;;;;;15.75;93.97;99893.38;5157195;27;20058;-83
2021/08/05 04:21:13;;;;;;;10.70;8.10;;;;;;;15.74;93.63;99897.06;5158357;27;20046;-82
2021/08/05 04:23:40;;;;;;;8.27;7.45;;;;;;;15.68;93.92;99898.34;5155351;27;20050;-81
2021/08/05 04:26:07;;;;;;;9.57;8.57;;;;;;;15.62;94.68;99901.47;5152286;27;20041;-81
2021/08/05 04:28:34;;;;;;;8.63;7.57;;;;;;;15.53;95.10;99894.16;5153613;27;20038;-83
2021/08/05 04:31:00;;;;;;;10.07;8.52;;;;;;;15.52;95.69;99892.44;5158759;27;21429;-82
2021/08/05 04:33:27;;;;;;;12.02;8.77;;;;;;;15.55;96.22;99891.38;5161931;27;20087;-82
2021/08/05 04:35:54;;;;;;;11.00;8.20;;;;;;;15.62;96.15;99900.63;5147233;27;20052;-83
2021/08/05 04:38:21;;;;;;;9.82;8.45;;;;;;;15.66;96.23;99896.78;5146450;27;20047;-82
2021/08/05 04:40:48;;;;;;;11.23;7.90;;;;;;;15.72;96.11;99902.50;5144694;27;20054;-81
2021/08/05 04:43:14;;;;;;;10.57;7.68;;;;;;;15.72;95.92;99889.16;5143477;27;20091;-82
2021/08/05 04:45:42;;;;;;;12.18;6.97;;;;;;;15.82;95.66;99899.13;5162958;27;20413;-81
2021/08/05 04:48:09;;;;;;;9.95;7.82;;;;;;;15.84;95.39;99899.84;5149880;27;20401;-82
2021/08/05 04:50:39;;;;;;;8.80;7.90;;;;;;;15.83;95.12;99896.34;5148292;27;20051;-82
2021/08/05 04:53:07;;;;;;;9.43;7.65;;;;;;;15.86;94.99;99900.59;5159610;27;20043;-82
2021/08/05 04:55:34;;;;;;;13.38;8.25;;;;;;;15.88;95.00;99894.19;5148762;27;20050;-81
2021/08/05 04:58:03;;;;;;;12.65;9.10;;;;;;;15.92;94.76;99889.44;5147405;27;20051;-82
2021/08/05 05:00:34;;;;;;;8.98;8.00;;;;;;;15.96;94.60;99896.25;5164302;27;20710;-83
2021/08/05 05:03:02;;;;;;;9.90;8.70;;;;;;;15.97;94.38;99895.28;5151601;27;20051;-83
2021/08/05 05:05:30;;;;;;;12.65;9.43;;;;;;;15.99;94.33;99906.69;5150058;27;20046;-83
2021/08/05 05:08:14;;;;;;;13.07;9.45;;;;;;;16.04;94.10;99901.84;5151980;27;20074;-82
2021/08/05 05:10:41;;;;;;;12.27;9.98;;;;;;;16.07;93.81;99898.94;5151222;27;20043;-82
2021/08/05 05:13:08;;;;;;;11.02;9.40;;;;;;;16.10;93.50;99904.03;5146253;27;20050;-82
2021/08/05 05:15:35;;;;;;;10.20;8.25;;;;;;;16.12;92.97;99896.75;5147942;27;20500;-81
2021/08/05 05:18:02;;;;;;;11.18;8.48;;;;;;;16.17;93.21;99894.59;5143476;27;20514;-82
2021/08/05 05:20:29;;;;;;;9.85;8.10;;;;;;;16.14;92.88;99886.81;5148822;27;20121;-84
2021/08/05 05:22:56;;;;;;;11.98;8.80;;;;;;;16.19;92.19;99892.66;5127665;27;20515;-82
2021/08/05 05:25:23;;;;;;;11.43;9.02;;;;;;;16.13;91.86;99891.31;5129584;27;20054;-82
2021/08/05 05:27:50;;;;;;;11.35;9.18;;;;;;;16.15;92.24;99896.53;5122828;27;20051;-83
2021/08/05 05:30:17;;;;;;;12.50;8.52;;;;;;;16.14;92.49;99890.34;5114039;27;20077;-82
2021/08/05 05:32:46;;;;;;;10.18;9.18;;;;;;;16.19;92.95;99887.31;5126817;27;20038;-81
2021/08/05 05:35:15;;;;;;;13.00;9.95;;;;;;;16.22;92.66;99891.53;5133336;27;20047;-82
2021/08/05 05:37:44;;;;;;;9.82;8.55;;;;;;;16.28;92.90;99894.59;5132605;27;20043;-81
2021/08/05 05:40:12;;;;;;;10.45;8.68;;;;;;;16.34;92.75;99895.94;5127471;27;20051;-82
2021/08/05 05:42:39;;;;;;;13.43;9.63;;;;;;;16.36;92.86;99894.84;5130138;27;20047;-81
2021/08/05 05:45:08;;;;;;;11.98;10.30;;;;;;;16.34;92.23;99888.78;5125659;27;20051;-81
2021/08/05 05:47:36;;;;;;;20.80;16.08;;;;;;;16.37;91.96;99893.03;5132115;27;20043;-81
2021/08/05 05:50:06;;;;;;;34.25;25.13;;;;;;;16.41;91.71;99891.78;5111643;27;20038;-81
2021/08/05 05:52:34;;;;;;;86.32;61.50;;;;;;;16.42;91.34;99889.00;5128606;27;20054;-81
2021/08/05 05:55:01;;;;;;;28.95;22.13;;;;;;;16.46;91.17;99901.16;5131954;27;20054;-81
2021/08/05 05:57:27;;;;;;;67.72;52.70;;;;;;;16.49;90.54;99894.72;5135116;27;20045;-81
2021/08/05 05:59:54;;;;;;;21.77;14.60;;;;;;;16.53;90.11;99898.00;5127916;27;20052;-81
2021/08/05 06:02:21;;;;;;;23.88;19.08;;;;;;;16.55;90.03;99888.88;5130184;27;20080;-81
2021/08/05 06:04:49;;;;;;;94.22;70.32;;;;;;;16.62;89.60;99894.59;5135478;27;20047;-81
2021/08/05 06:07:16;;;;;;;19.63;15.50;;;;;;;16.69;88.88;99887.81;5128267;27;20039;-82
2021/08/05 06:09:43;;;;;;;18.85;15.82;;;;;;;16.73;87.83;99892.78;5117064;27;20039;-81
2021/08/05 06:12:09;;;;;;;17.70;12.40;;;;;;;16.75;87.98;99890.00;5131645;27;20051;-82
2021/08/05 06:14:36;;;;;;;15.10;12.32;;;;;;;16.83;88.27;99887.56;5138191;27;20134;-81
2021/08/05 06:17:03;;;;;;;15.07;12.90;;;;;;;16.94;86.94;99881.34;5143691;27;20088;-80
2021/08/05 06:19:30;;;;;;;15.52;12.07;;;;;;;17.07;86.88;99887.38;5142174;27;20047;-80
2021/08/05 06:21:58;;;;;;;12.57;11.10;;;;;;;17.23;85.96;99878.94;5142465;27;20215;-83
2021/08/05 06:24:25;;;;;;;17.40;11.90;;;;;;;17.64;84.95;99881.72;5149452;27;20353;-82
2021/08/05 06:26:52;;;;;;;14.30;11.13;;;;;;;18.09;81.17;99889.53;5139937;27;20053;-82
2021/08/05 06:29:19;;;;;;;16.70;12.10;;;;;;;18.39;79.02;99886.84;5138961;27;20134;-81
2021/08/05 06:31:47;;;;;;;13.60;11.40;;;;;;;18.61;77.67;99883.16;5139617;27;20113;-82
2021/08/05 06:34:13;;;;;;;16.33;10.93;;;;;;;18.88;75.74;99886.09;5132678;27;20569;-83
2021/08/05 06:36:40;;;;;;;14.77;12.15;;;;;;;19.13;75.26;99884.72;5135176;27;20047;-82
2021/08/05 06:39:07;;;;;;;15.32;11.88;;;;;;;19.53;73.50;99891.84;5145628;27;20540;-84
2021/08/05 06:41:35;;;;;;;12.18;10.73;;;;;;;19.97;72.50;99890.41;5143285;27;20093;-83
2021/08/05 06:44:02;;;;;;;14.23;10.60;;;;;;;19.99;70.59;99891.09;5140927;27;20079;-83
2021/08/05 06:46:28;;;;;;;12.88;11.20;;;;;;;19.70;71.92;99887.59;5145401;27;20066;-84
2021/08/05 06:48:56;;;;;;;13.43;9.90;;;;;;;19.73;72.61;99890.84;5145782;27;20023;-85
2021/08/05 06:51:23;;;;;;;11.32;9.45;;;;;;;19.81;72.82;99893.69;5137294;27;20035;-79
2021/08/05 06:53:49;;;;;;;13.50;8.60;;;;;;;19.93;71.74;99889.84;5139145;27;20321;-80
2021/08/05 06:56:16;;;;;;;10.82;8.40;;;;;;;19.84;70.61;99892.53;5145795;27;20104;-79
2021/08/05 06:58:43;;;;;;;13.95;9.27;;;;;;;19.67;71.31;99888.75;5136118;27;20046;-80
2021/08/05 07:01:10;;;;;;;12.02;9.02;;;;;;;19.46;72.13;99890.69;5139945;27;20043;-79
2021/08/05 07:03:37;;;;;;;15.93;9.35;;;;;;;19.49;72.48;99887.72;5128092;28;20463;-79
2021/08/05 07:06:06;;;;;;;12.25;8.95;;;;;;;19.63;72.30;99890.00;5134082;27;20052;-79
2021/08/05 07:08:35;;;;;;;10.15;8.13;;;;;;;19.75;71.75;99891.56;5136351;27;20050;-79
2021/08/05 07:11:02;;;;;;;9.32;7.63;;;;;;;19.84;72.37;99890.69;5124955;27;20039;-79
2021/08/05 07:13:29;;;;;;;10.88;8.63;;;;;;;20.06;70.86;99891.38;5147343;27;20114;-80
2021/08/05 07:15:56;;;;;;;12.30;8.80;;;;;;;20.31;70.13;99893.41;5148054;27;20090;-81
2021/08/05 07:18:22;;;;;;;11.48;8.20;;;;;;;20.56;70.25;99895.50;5139279;27;20043;-81
2021/08/05 07:20:49;;;;;;;10.75;7.93;;;;;;;20.89;67.82;99895.91;5141638;27;20047;-81
2021/08/05 07:23:16;;;;;;;10.98;8.25;;;;;;;20.98;66.90;99886.91;5148175;27;20050;-81
2021/08/05 07:25:44;;;;;;;8.93;7.80;;;;;;;20.95;66.83;99885.38;5146559;27;20070;-81
2021/08/05 07:28:11;;;;;;;11.00;7.75;;;;;;;20.99;66.69;99886.78;5141498;27;20492;-81
2021/08/05 07:30:38;;;;;;;10.05;7.95;;;;;;;21.12;65.93;99894.47;5143751;27;20041;-80
2021/08/05 07:33:05;;;;;;;10.35;7.45;;;;;;;21.32;64.97;99889.84;5117541;27;20047;-81
2021/08/05 07:35:32;;;;;;;8.10;6.60;;;;;;;21.53;65.10;99889.56;5151556;27;20125;-81
2021/08/05 07:37:59;;;;;;;9.45;7.68;;;;;;;21.44;63.84;99875.16;5151208;27;20045;-81
2021/08/05 07:40:25;;;;;;;12.77;10.60;;;;;;;21.41;63.63;99874.63;5154600;27;20036;-80
2021/08/05 07:42:52;;;;;;;8.50;7.05;;;;;;;21.52;64.63;99877.09;5135318;27;20515;-81
2021/08/05 07:45:19;;;;;;;7.70;6.55;;;;;;;21.73;63.09;99864.13;5154435;27;20054;-81
2021/08/05 07:47:45;;;;;;;8.38;7.25;;;;;;;21.81;63.32;99860.66;5138656;27;20070;-81
2021/08/05 07:50:14;;;;;;;9.95;6.40;;;;;;;21.88;62.15;99861.72;5154432;27;20053;-82
2021/08/05 07:52:41;;;;;;;7.75;6.63;;;;;;;21.93;62.40;99857.53;5140710;27;20047;-80
2021/08/05 07:55:08;;;;;;;9.48;7.13;;;;;;;22.02;62.48;99864.72;5144829;27;20040;-80
2021/08/05 07:57:35;;;;;;;8.85;6.35;;;;;;;22.00;62.79;99855.97;5143848;27;20070;-80
2021/08/05 08:00:04;;;;;;;9.95;6.70;;;;;;;22.03;62.74;99863.72;5143311;27;20061;-80
2021/08/05 08:02:31;;;;;;;10.23;7.30;;;;;;;22.12;61.70;99861.91;5160151;27;20046;-81
2021/08/05 08:04:58;;;;;;;8.23;5.97;;;;;;;22.14;62.69;99861.75;5158202;27;20417;-80
2021/08/05 08:07:25;;;;;;;8.18;6.50;;;;;;;22.23;61.44;99863.50;5144340;27;20039;-80
2021/08/05 08:09:52;;;;;;;6.38;5.57;;;;;;;22.30;61.85;99868.09;5141058;27;20104;-80
2021/08/05 08:12:19;;;;;;;7.35;5.97;;;;;;;22.49;61.12;99867.03;5145371;27;20079;-80
2021/08/05 08:14:46;;;;;;;8.07;6.13;;;;;;;22.61;61.28;99860.34;5133622;27;20047;-81
2021/08/05 08:17:16;;;;;;;7.57;6.20;;;;;;;22.69;59.88;99865.75;5137012;27;20129;-81
2021/08/05 08:19:43;;;;;;;7.47;6.38;;;;;;;22.50;59.34;99860.63;5153935;27;20046;-81
2021/08/05 08:22:10;;;;;;;8.77;6.47;;;;;;;22.37;60.04;99860.19;5153002;27;20055;-80
2021/08/05 08:24:36;;;;;;;7.30;5.80;;;;;;;22.35;59.95;99862.25;5162647;27;20057;-81
2021/08/05 08:27:04;;;;;;;7.40;6.20;;;;;;;22.24;59.90;99857.94;5162027;27;20053;-81
2021/08/05 08:29:31;;;;;;;6.07;5.47;;;;;;;22.38;61.46;99851.09;5160743;27;20046;-81
2021/08/05 08:31:58;;;;;;;6.38;5.35;;;;;;;22.55;60.90;99855.56;5156553;27;20049;-80
2021/08/05 08:34:25;;;;;;;8.23;5.43;;;;;;;22.62;59.27;99853.09;5155868;27;20178;-80
2021/08/05 08:36:51;;;;;;;5.72;5.13;;;;;;;22.47;58.78;99844.75;5163587;27;20039;-80
2021/08/05 08:39:22;;;;;;;6.95;5.38;;;;;;;22.32;59.50;99838.28;5162867;27;20050;-80
2021/08/05 08:41:50;;;;;;;12.52;9.82;;;;;;;22.43;59.36;99840.69;5157902;27;20137;-80
2021/08/05 08:44:17;;;;;;;6.88;4.80;;;;;;;22.47;59.67;99827.72;5160167;27;20031;-80
2021/08/05 08:46:49;;;;;;;7.53;4.95;;;;;;;22.41;58.96;99840.00;5153098;27;20050;-80
2021/08/05 08:49:21;;;;;;;5.30;4.30;;;;;;;22.52;58.77;99834.31;5153782;27;20049;-80
2021/08/05 08:51:48;;;;;;;4.30;3.90;;;;;;;22.61;58.89;99827.94;5153050;27;20049;-80
2021/08/05 08:54:15;;;;;;;5.55;4.40;;;;;;;22.72;57.40;99829.50;5152072;27;20059;-80
2021/08/05 08:56:44;;;;;;;9.25;4.50;;;;;;;22.82;56.96;99829.41;5151678;27;20134;-80
2021/08/05 08:59:11;;;;;;;16.60;5.65;;;;;;;22.84;57.50;99827.38;5158312;27;20054;-81
2021/08/05 09:01:41;;;;;;;7.38;4.75;;;;;;;22.96;58.03;99823.38;5157483;27;20043;-80
2021/08/05 09:04:08;;;;;;;;;;;;;;;22.98;57.51;99824.06;5150845;27;20046;-80
2021/08/05 09:06:36;;;;;;;5.78;4.55;;;;;;;23.02;57.31;99823.53;5155397;27;20010;-79
2021/08/05 09:09:06;;;;;;;6.38;4.47;;;;;;;22.92;57.16;99822.00;5152930;27;20137;-80
2021/08/05 09:11:34;;;;;;;5.80;4.20;;;;;;;22.69;58.17;99825.28;5149529;27;20045;-82
2021/08/05 09:14:01;;;;;;;5.20;4.40;;;;;;;22.67;58.64;99823.75;5159166;27;20074;-82
2021/08/05 09:16:31;;;;;;;4.88;4.30;;;;;;;22.71;58.01;99817.84;5159114;27;20043;-80
2021/08/05 09:19:19;;;;;;;8.20;5.00;;;;;;;22.70;57.55;99808.06;5158793;27;20051;-81
2021/08/05 09:21:57;;;;;;;7.82;5.10;;;;;;;22.61;58.13;99809.06;5157993;27;20042;-82
2021/08/05 09:24:29;;;;;;;4.75;4.20;;;;;;;22.48;59.08;99816.78;5166269;27;20054;-81
2021/08/05 09:26:59;;;;;;;6.70;4.32;;;;;;;22.40;59.12;99805.94;5170482;27;20098;-81
2021/08/05 09:29:26;;;;;;;5.07;3.90;;;;;;;22.34;58.11;99814.69;5173732;27;20046;-82
2021/08/05 09:31:57;;;;;;;4.93;3.53;;;;;;;22.45;57.86;99810.84;5165987;27;20106;-82
2021/08/05 09:34:40;;;;;;;5.88;3.55;;;;;;;22.60;55.92;99798.44;5159937;27;20047;-82
2021/08/05 09:37:11;;;;;;;4.03;3.67;;;;;;;22.69;56.38;99800.97;5150262;27;20077;-82
2021/08/05 09:39:40;;;;;;;5.40;3.75;;;;;;;22.86;54.64;99804.59;5155900;27;20497;-81
2021/08/05 09:42:12;;;;;;;;;;;;;;;22.93;55.42;99805.66;5149588;27;20053;-81
2021/08/05 09:44:39;;;;;;;5.90;3.80;;;;;;;23.11;55.61;99804.66;5133535;27;19926;-80
2021/08/05 09:47:10;;;;;;;4.22;3.35;;;;;;;23.15;54.56;99798.75;5146251;27;20068;-81
2021/08/05 09:50:01;;;;;;;4.22;3.70;;;;;;;23.20;54.34;99799.09;5150576;27;20058;-81
2021/08/05 09:52:30;;;;;;;5.95;3.50;;;;;;;23.14;54.10;99788.94;5144570;27;20047;-81
2021/08/05 09:54:59;;;;;;;4.80;3.78;;;;;;;23.03;55.82;99790.13;5149912;27;20122;-81
2021/08/05 09:57:36;;;;;;;4.78;3.40;;;;;;;23.08;53.87;99793.19;5153718;27;20575;-82
2021/08/05 10:00:08;;;;;;;4.88;3.20;;;;;;;23.01;53.89;99796.69;5164115;27;20047;-81
2021/08/05 10:02:43;;;;;;;4.05;3.35;;;;;;;22.90;54.72;99783.53;5166163;27;20072;-81
2021/08/05 10:05:28;;;;;;;4.97;3.70;;;;;;;22.84;54.69;99786.88;5156842;27;20062;-81
2021/08/05 10:07:58;;;;;;;5.35;3.85;;;;;;;22.76;54.62;99787.69;5155114;27;20540;-79
2021/08/05 10:10:27;;;;;;;3.83;3.53;;;;;;;22.68;55.36;99779.56;5156188;27;20115;-80
2021/08/05 10:12:57;;;;;;;4.10;3.38;;;;;;;22.63;55.35;99777.38;5154907;27;20050;-81
2021/08/05 10:15:25;;;;;;;3.35;3.05;;;;;;;22.66;55.95;99785.13;5153681;27;20123;-81
2021/08/05 10:17:55;;;;;;;4.78;3.45;;;;;;;22.79;55.77;99775.75;5162017;27;20139;-80
2021/08/05 10:20:24;;;;;;;5.45;3.65;;;;;;;23.01;55.54;99775.94;5156815;27;20042;-81
2021/08/05 10:22:52;;;;;;;5.32;3.53;;;;;;;23.20;54.48;99773.94;5148273;27;20058;-80
2021/08/05 10:25:25;;;;;;;8.05;4.20;;;;;;;23.35;54.56;99766.84;5147781;27;20126;-82
2021/08/05 10:27:54;;;;;;;4.32;3.90;;;;;;;23.58;54.74;99762.50;5148158;27;20098;-81
2021/08/05 10:30:21;;;;;;;3.90;3.40;;;;;;;23.73;53.27;99758.09;5159398;27;20515;-80
2021/08/05 10:32:51;;;;;;;4.05;3.58;;;;;;;23.89;52.01;99753.66;5166539;27;20047;-80
2021/08/05 10:35:17;;;;;;;3.78;3.40;;;;;;;23.97;51.60;99751.75;5156964;27;20050;-81
2021/08/05 10:37:48;;;;;;;5.28;4.32;;;;;;;23.96;50.87;99752.78;5155006;27;20057;-80
2021/08/05 10:40:15;;;;;;;4.10;3.25;;;;;;;23.69;52.29;99745.91;5153597;27;20047;-80
2021/08/05 10:42:44;;;;;;;4.80;3.58;;;;;;;23.68;52.36;99749.63;5148255;27;20055;-81
2021/08/05 10:45:12;;;;;;;3.78;3.30;;;;;;;23.82;52.94;99749.94;5143771;27;20047;-80
2021/08/05 10:47:41;;;;;;;4.03;3.00;;;;;;;23.94;52.74;99741.28;5152401;27;20042;-80
2021/08/05 10:50:11;;;;;;;5.75;3.67;;;;;;;23.92;51.88;99746.03;5158769;27;20118;-82
2021/08/05 10:52:40;;;;;;;4.15;3.65;;;;;;;23.96;50.96;99739.25;5154511;27;20047;-81
2021/08/05 10:55:34;;;;;;;3.30;2.97;;;;;;;24.17;50.64;99729.72;5156245;27;20038;-81
2021/08/05 10:58:15;;;;;;;4.40;3.20;;;;;;;24.31;49.50;99737.13;5158562;27;20401;-81
2021/08/05 11:01:02;;;;;;;3.67;3.33;;;;;;;24.42;48.55;99734.03;5151973;27;20051;-81
2021/08/05 11:03:32;;;;;;;4.10;2.92;;;;;;;24.37;49.10;99734.56;5157920;27;20063;-81
2021/08/05 11:06:03;;;;;;;6.47;3.63;;;;;;;24.21;48.92;99737.31;5155142;27;20055;-80
2021/08/05 11:08:31;;;;;;;4.63;3.15;;;;;;;24.14;49.62;99737.16;5155451;27;20039;-81
2021/08/05 11:11:20;;;;;;;5.15;3.28;;;;;;;24.31;49.06;99726.31;5148244;27;20046;-80
2021/08/05 11:13:53;;;;;;;6.13;3.50;;;;;;;24.32;49.22;99722.59;5152583;27;20039;-82
2021/08/05 11:16:57;;;;;;;4.13;3.35;;;;;;;24.27;50.02;99723.09;5155864;27;20360;-80
2021/08/05 11:19:31;;;;;;;3.65;3.20;;;;;;;24.33;49.00;99714.28;5166173;27;20077;-80
2021/08/05 11:22:37;;;;;;;5.90;3.47;;;;;;;24.44;48.52;99708.47;5158407;27;20043;-81
2021/08/05 11:25:19;;;;;;;;;;;;;;;24.60;47.50;99704.81;5151273;27;20053;-80
2021/08/05 11:28:29;;;;;;;4.78;3.80;;;;;;;24.76;47.69;99703.88;5161198;27;19970;-80
2021/08/05 11:31:24;;;;;;;5.35;3.47;;;;;;;24.84;45.59;99701.13;5160430;27;20141;-80
2021/08/05 11:33:51;;;;;;;4.03;3.40;;;;;;;24.73;44.91;99691.53;5158603;27;20102;-81
2021/08/05 11:36:33;;;;;;;4.10;3.65;;;;;;;24.73;45.57;99691.53;5163930;27;20051;-81
2021/08/05 11:39:25;;;;;;;4.82;3.70;;;;;;;24.71;46.14;99693.59;5163213;27;20159;-80
2021/08/05 11:42:04;;;;;;;5.18;3.30;;;;;;;24.77;46.78;99689.31;5145291;27;20115;-81
2021/08/05 11:44:32;;;;;;;4.03;3.72;;;;;;;24.55;47.74;99685.59;5157705;27;20412;-80